aviador You're here:

KDEN Decoded Metar

DENVER in CO, USA
Report Time2018-07-22 15:53:00
UTC Time2018-07-22 16:17:41
Flight Rules vfr VFR
WindCalm
Visibility9999 m
Phenomena:N/A
Clouds:Scattered 150 Hf
Broken 220 Hf
Expected CloudBase > 8,400 ft AGL from Temp-Dew spread
Ceiling22,000 ft
Temp30°C (ISA +26)
Dew Point09°C (27% RH)
Heat Index28.6°C
AAT29.8°C
QNH1022 hPa
Density Alt8,143 ft
Elevation5,381 ft
Report Wrong Elevation
Raw Report
KDEN 221553Z 00000KT 10SM SCT150 BKN220 30/09 A3018 RMK AO2 SLP123
T03000094=

Extra information for KDEN:More info

Metar Taf Metar & Taf Last 4 Metars F.Rules Stats Wind Profile Meteogram Temp Stats Airport Information Weather charts Add Link Nearby VenuesMetar ALERT Operation Metar Decoded Social comments

AIRNAV info for KDEN